Airfield :
LOGIN :

Register | Disclaimer

   EN    FR    IT 

 










Legend :    VFR   Marginal VFR   IFR   Intensive IFR   Very Intensive IFR
Visi :
Ceiling :
>= 8 km
>= 3000ft
5 to 8 km
1000 to 3000 ft
1500m to 5 km
500 to 1000 ft
800 to 1500m
200 to 500 ft
< 800m
< 200 ft
Symbols :   Thunderstorms  Fog  Heavy snow  Heavy precipitations  Wind > 20 kt
SIGMETs :     Misc.  Thunderstorms  Icing  Turbulence  Mountain Waves  Volcanic Ashes







- Airport Elevation : 124 ft
- IATA code : RNS
- Download approach charts


LFRN - Rennes

CURRENT METAR :
  • 221630Z AUTO 22004KT 180V270 CAVOK 17/04 Q1027 NOSIG

EXPIRED METARs :
  • 221600Z AUTO 19004KT 100V260 CAVOK 18/04 Q1027 NOSIG
  • 221530Z AUTO 00000KT CAVOK 18/06 Q1027 NOSIG
  • 221500Z AUTO 19005KT 130V230 CAVOK 17/05 Q1027 NOSIG
  • 221430Z AUTO 24003KT 160V320 CAVOK 18/04 Q1027 NOSIG
  • 221400Z AUTO VRB03KT CAVOK 17/03 Q1028 NOSIG

TAF TAF LFRN
Valid from the 22 at 12:00 until the 23 at 12:00 UTC


221100Z 2212/2312 VRB03KT CAVOK
BECMG 2222/2224 BKN004
TEMPO 2222/2309 3000 BR
BECMG 2308/2310 BKN008
BECMG 2310/2312 CAVOK
ATIS : +33 2 99 67 72 50
No reported NOTAMs for that airfield.



MET'MAP, your aeronautical weather chart ! - Copyright ORBIFLY December 2007 - Disclaimer

ORBIFLY MET'MAP TEAM :

Programming & Development : Alexandra Zaïnal
Concept & Development : Baudouin d'Aumeries
Co-Development & Prog : Marc-Olivier Méhu
Technical & hardware support : Manuel Goepfert

Contact : metmap@orbifly.com




SOURCES & CREDITS :

   NOAA